Nearby METAR Reports

This page may be slow to load as it queries the National Weather Service for data.

KBIS - Bismarck, North Dakota, USA
Distance from station: S 10mi, 15km
Updated: Mon, 20-May-2019 12:52am CDT
Few Clouds
Few Clouds
 Wind from calm
Wind: Calm
Temperature: 43°F , 6°C
Dew Point: 37°F , 3°C
Humidity: 81%
Barometer: 30.12 inHg , 1020 hPa
Clouds: Few Clouds
Visibility: 10 miles , 16 km
Cloud details: Few Clouds 12000 ft
2019/05/20 05:52 KBIS 200552Z AUTO 00000KT 10SM FEW120 06/03 A3012 RMK AO2 SLP210 T00560033 10094 20056 401000039 51010 $
KDIK - Dickinson, North Dakota, USA
Distance from station: W 95mi, 154km
Updated: Mon, 20-May-2019 12:56am CDT
Overcast
Overcast
 Wind from calm
Wind: Calm
Temperature: 41°F , 5°C
Dew Point: 34°F , 1°C
Humidity: 76%
Barometer: 30.08 inHg , 1018.6 hPa
Clouds: Overcast
Visibility: 10 miles , 16 km
Cloud details: Few Clouds 6500 ft
Overcast 8000 ft
2019/05/20 05:56 KDIK 200556Z AUTO 00000KT 10SM FEW065 OVC080 05/01 A3008 RMK AO2 SLP200 T00500006 10094 20044 50002 $
 
KISN - Williston, North Dakota, USA
Distance from station: NNW 2mi, 2km
Updated: Mon, 20-May-2019 12:52am CDT
Clear
Clear
 Wind from ESE
Wind: ESE 6 mph , 9 km/h
Temperature: 48°F , 9°C
Wind Chill: 45°F , 7°C
Dew Point: 30°F , -1°C
Humidity: 50%
Barometer: 30.11 inHg , 1019.6 hPa
Clouds: Clear
Visibility: 10 miles , 16 km
2019/05/20 05:52 KISN 200552Z AUTO 12005KT 10SM CLR 09/M01 A3011 RMK AO2 SLP207 T00891011 10139 20089 401440022 50007
KFAR - Fargo, North Dakota, USA
Distance from station: NNW 4mi, 7km
Updated: Mon, 20-May-2019 12:53am CDT
Clear
Clear
 Wind from S
Wind: S 3 mph , 6 km/h
Temperature: 39°F , 4°C
Dew Point: 39°F , 4°C
Humidity: 100%
Barometer: 30.09 inHg , 1019 hPa
Clouds: Clear
Visibility: 10 miles , 16 km
2019/05/20 05:53 KFAR 200553Z 18003KT 10SM CLR 04/04 A3009 RMK AO2 SLP196 T00440039 10128 20044 401280044 51022
 
KGFK - Grand Forks, North Dakota, USA
Distance from station: NNW 76mi, 123km
Updated: Mon, 20-May-2019 12:53am CDT
Clear
Clear
 Wind from W
Wind: W 8 mph , 13 km/h
Temperature: 39°F , 4°C
Wind Chill: 33°F , 1°C
Dew Point: 27°F , -3°C
Humidity: 61%
Barometer: 30.09 inHg , 1019 hPa
Clouds: Clear
Visibility: 10 miles , 16 km
2019/05/20 05:53 KGFK 200553Z AUTO 28007KT 10SM CLR 04/M03 A3009 RMK AO2 SLP194 T00391033 10150 20028 401610028 52017
KMOT - Minot, North Dakota, USA
Distance from station: E 109mi, 175km
Updated: Mon, 20-May-2019 12:54am CDT
Clear
Clear
 Wind from NNW
Wind: NNW 6 mph , 9 km/h
Temperature: 39°F , 4°C
Wind Chill: 35°F , 2°C
Dew Point: 27°F , -3°C
Humidity: 61%
Barometer: 30.12 inHg , 1020 hPa
Clouds: Clear
Visibility: 10 miles , 16 km
2019/05/20 05:54 KMOT 200554Z AUTO 34005KT 10SM CLR 04/M03 A3012 RMK AO2 SLP210 T00441033 10144 20039 401500039 51012